Time;durP1;ratioP1;P1;durP2;ratioP2;P2;SDS_P1;SDS_P2;PMS_P1;PMS_P2;Temp;Humidity;BMP_temperature;BMP_pressure;BME280_temperature;BME280_humidity;BME280_pressure;Samples;Min_cycle;Max_cycle;Signal;HPM_P1;HPM_P2
2020/12/23 00:02:35;;;;;;;16.77;11.17;;;;;;;-1.45;70.55;101085.38;1727661;81;21282;-93
2020/12/23 00:05:12;;;;;;;11.73;7.73;;;;;;;-1.40;70.59;101088.53;1748450;80;21269;-91
2020/12/23 00:07:50;;;;;;;17.17;9.53;;;;;;;-1.39;70.70;101077.14;1740288;81;21177;-92
2020/12/23 00:10:24;;;;;;;14.40;8.83;;;;;;;-1.37;70.65;101080.51;1723860;81;21222;-93
2020/12/23 00:12:58;;;;;;;12.63;8.70;;;;;;;-1.34;70.64;101084.70;1754028;80;21183;-92
2020/12/23 00:15:38;;;;;;;16.03;8.10;;;;;;;-1.71;70.79;101024.63;1779695;80;21243;-90
2020/12/23 00:18:18;;;;;;;17.27;11.40;;;;;;;-1.32;70.75;101078.91;1757429;80;21259;-91
2020/12/23 00:20:59;;;;;;;17.47;10.63;;;;;;;-1.30;70.88;101077.06;1762922;80;21606;-91
2020/12/23 00:23:29;;;;;;;18.10;10.73;;;;;;;-1.31;71.00;101074.06;1757658;80;21160;-91
2020/12/23 00:25:57;;;;;;;19.00;11.90;;;;;;;-1.34;71.37;101076.02;1765869;80;21177;-93
2020/12/23 00:28:27;;;;;;;15.87;9.67;;;;;;;-1.32;71.36;101064.99;1752712;80;21299;-92
2020/12/23 00:30:55;;;;;;;16.87;10.13;;;;;;;-1.36;71.57;101065.65;1766472;79;21233;-91
2020/12/23 00:33:24;;;;;;;16.47;10.03;;;;;;;-1.42;71.37;101056.40;1768671;78;21267;-91
2020/12/23 00:35:54;;;;;;;15.13;9.93;;;;;;;-1.34;71.30;101065.56;1747741;79;21219;-92
2020/12/23 00:38:28;;;;;;;11.23;8.10;;;;;;;-1.33;71.30;101052.39;1765718;79;21170;-91
2020/12/23 00:41:03;;;;;;;14.27;9.77;;;;;;;-1.30;70.92;101062.68;1763983;81;21535;-90
2020/12/23 00:43:33;;;;;;;13.13;7.70;;;;;;;-1.31;70.65;101044.45;1768720;80;21193;-92
2020/12/23 00:46:05;;;;;;;12.27;8.97;;;;;;;-1.32;70.43;101042.77;1705903;83;21179;-92
2020/12/23 00:48:33;;;;;;;12.40;7.40;;;;;;;-1.37;70.51;101046.50;1706476;83;21326;-92
2020/12/23 00:51:14;;;;;;;12.70;7.77;;;;;;;-1.35;70.39;101032.52;1728483;83;21336;-94
2020/12/23 00:53:42;;;;;;;12.53;7.67;;;;;;;-1.41;70.46;101017.56;1721769;82;21205;-90
2020/12/23 00:56:14;;;;;;;10.00;6.67;;;;;;;-1.36;70.35;101027.72;1729538;82;21198;-92
2020/12/23 00:58:42;;;;;;;11.43;8.37;;;;;;;-1.50;70.85;101021.21;1719450;82;21601;-92
2020/12/23 01:01:10;;;;;;;8.97;6.33;;;;;;;-1.47;70.90;101016.64;1693988;83;21186;-91
2020/12/23 01:03:40;;;;;;;13.37;8.90;;;;;;;-1.53;71.03;101011.77;1699832;82;21188;-90
2020/12/23 01:06:10;;;;;;;11.20;7.07;;;;;;;-1.54;71.19;101025.78;1733337;80;21254;-94
2020/12/23 01:08:41;;;;;;;13.53;8.13;;;;;;;-1.60;71.25;101010.45;1708404;82;21284;-91
2020/12/23 01:11:09;;;;;;;11.00;6.27;;;;;;;-1.54;71.05;101010.09;1727447;81;21166;-88
2020/12/23 01:13:45;;;;;;;11.28;7.60;;;;;;;-1.62;71.08;100988.79;1711223;81;21273;-90
2020/12/23 01:16:51;;;;;;;15.23;7.87;;;;;;;-1.50;70.73;100992.45;1710361;80;21195;-91
2020/12/23 01:19:18;;;;;;;38.37;7.97;;;;;;;-1.63;70.63;100975.36;1716030;83;21720;-90
2020/12/23 01:21:45;;;;;;;13.63;8.30;;;;;;;-1.55;70.40;100990.58;1709088;83;21237;-90
2020/12/23 01:24:13;;;;;;;12.37;6.90;;;;;;;-1.53;70.40;100990.02;1696541;83;21324;-90
2020/12/23 01:26:42;;;;;;;11.73;7.93;;;;;;;-1.60;70.32;100990.39;1694289;83;21158;-91
2020/12/23 01:29:11;;;;;;;11.10;8.50;;;;;;;-1.55;70.25;100971.80;1759233;80;21295;-90
2020/12/23 01:31:42;;;;;;;10.80;8.07;;;;;;;-1.53;70.24;100963.87;1744028;81;21152;-89
2020/12/23 01:34:09;;;;;;;11.53;7.63;;;;;;;-1.54;70.17;100976.11;1765563;80;21230;-88
2020/12/23 01:36:39;;;;;;;11.67;8.07;;;;;;;-1.52;70.03;100966.87;1773571;79;21572;-88
2020/12/23 01:39:08;;;;;;;11.77;7.70;;;;;;;-1.45;69.94;100962.91;1757670;80;21626;-89
2020/12/23 01:43:12;;;;;;;10.70;7.63;;;;;;;-1.36;69.87;100968.87;1793869;77;22046;-90
2020/12/23 01:45:39;;;;;;;10.80;7.37;;;;;;;-1.36;69.68;100966.27;1795167;78;22094;-88
2020/12/23 01:48:17;;;;;;;11.93;7.83;;;;;;;-1.38;69.64;100965.05;1798660;78;21678;-90
2020/12/23 01:50:44;;;;;;;10.10;6.12;;;;;;;-1.31;69.57;100955.53;1796959;78;21135;-91
2020/12/23 01:53:16;;;;;;;12.17;7.87;;;;;;;-1.41;69.89;100958.72;1806704;78;21111;-89
2020/12/23 01:55:47;;;;;;;12.33;7.37;;;;;;;-1.28;69.68;100952.26;1775406;77;21171;-88
2020/12/23 01:58:14;;;;;;;11.97;7.40;;;;;;;-1.32;69.84;100942.07;1756146;79;21163;-92
2020/12/23 02:00:41;;;;;;;14.17;9.10;;;;;;;-1.26;69.88;100940.36;1764313;78;21141;-92
2020/12/23 02:03:12;;;;;;;11.23;7.27;;;;;;;-1.26;69.94;100935.13;1742749;81;21246;-89
2020/12/23 02:05:41;;;;;;;13.97;7.97;;;;;;;-1.19;69.84;100935.12;1718440;80;21142;-91
2020/12/23 02:08:09;;;;;;;14.37;9.33;;;;;;;-1.24;69.89;100914.98;1724933;81;21329;-89
2020/12/23 02:10:39;;;;;;;16.70;9.23;;;;;;;-1.15;69.68;100924.83;1724207;81;21169;-89
2020/12/23 02:13:06;;;;;;;13.03;9.13;;;;;;;-1.20;69.78;100915.98;1728359;81;21197;-91
2020/12/23 02:15:34;;;;;;;14.73;9.03;;;;;;;-1.18;69.53;100904.11;1726116;81;21156;-91
2020/12/23 02:18:01;;;;;;;13.03;8.60;;;;;;;-1.24;69.72;100900.59;1720464;81;21386;-90
2020/12/23 02:20:30;;;;;;;13.47;8.87;;;;;;;-1.18;69.62;100911.96;1727252;81;21627;-91
2020/12/23 02:22:59;;;;;;;12.87;7.43;;;;;;;-1.19;69.63;100902.42;1727896;78;21137;-92
2020/12/23 02:25:26;;;;;;;14.17;7.20;;;;;;;-1.17;69.70;100896.62;1719701;81;21207;-90
2020/12/23 02:27:54;;;;;;;14.30;9.20;;;;;;;-1.21;69.72;100895.14;1726692;83;21183;-92
2020/12/23 02:30:22;;;;;;;16.40;9.83;;;;;;;-1.15;69.72;100888.20;1703968;82;21340;-92
2020/12/23 02:32:53;;;;;;;15.17;9.20;;;;;;;-1.23;69.91;100888.70;1702570;83;21195;-90
2020/12/23 02:35:25;;;;;;;13.47;9.70;;;;;;;-1.12;69.76;100892.41;1694107;83;21104;-90
2020/12/23 02:37:54;;;;;;;14.73;9.73;;;;;;;-1.14;69.86;100884.66;1684471;84;21235;-92
2020/12/23 02:40:21;;;;;;;13.93;8.60;;;;;;;-1.10;69.86;100884.83;1688942;84;21297;-91
2020/12/23 02:42:48;;;;;;;17.00;10.43;;;;;;;-1.09;69.82;100885.66;1729258;83;21192;-92
2020/12/23 02:45:15;;;;;;;14.33;10.33;;;;;;;-1.11;69.98;100875.77;1697339;83;21168;-92
2020/12/23 02:47:42;;;;;;;18.27;10.33;;;;;;;-1.15;70.11;100878.22;1686804;83;21206;-92
2020/12/23 02:50:09;;;;;;;16.10;9.60;;;;;;;-1.16;70.14;100868.70;1637374;85;21335;-91
2020/12/23 02:52:37;;;;;;;17.03;10.67;;;;;;;-1.12;70.08;100871.48;1686636;84;21269;-92
2020/12/23 02:55:04;;;;;;;17.63;11.43;;;;;;;-1.14;70.20;100866.34;1687228;83;21177;-90
2020/12/23 02:57:33;;;;;;;19.50;10.70;;;;;;;-1.09;70.13;100869.51;1690514;84;21289;-91
2020/12/23 03:00:03;;;;;;;22.47;12.07;;;;;;;-1.09;70.23;100869.95;1691357;83;21177;-92
2020/12/23 03:02:32;;;;;;;20.37;12.13;;;;;;;-1.05;70.09;100873.59;1688931;81;21109;-90
2020/12/23 03:05:01;;;;;;;16.50;11.23;;;;;;;-1.06;70.22;100863.23;1691069;82;21326;-90
2020/12/23 03:07:28;;;;;;;18.70;10.63;;;;;;;-1.05;70.21;100861.83;1687040;85;21760;-90
2020/12/23 03:09:57;;;;;;;20.00;12.70;;;;;;;-1.07;70.19;100851.94;1686681;85;21228;-90
2020/12/23 03:12:25;;;;;;;18.97;11.30;;;;;;;-1.04;70.21;100858.25;1686848;83;21173;-91
2020/12/23 03:14:53;;;;;;;19.10;10.53;;;;;;;-1.04;70.09;100850.87;1676614;84;21350;-91
2020/12/23 03:17:21;;;;;;;20.07;11.20;;;;;;;-1.04;70.02;100840.41;1684897;83;21192;-91
2020/12/23 03:19:51;;;;;;;22.67;12.60;;;;;;;-1.09;70.10;100834.19;1704502;82;21240;-90
2020/12/23 03:22:25;;;;;;;24.03;13.60;;;;;;;-1.03;70.03;100845.55;1691857;81;21177;-89
2020/12/23 03:24:54;;;;;;;18.93;12.07;;;;;;;-1.03;70.01;100844.24;1688566;83;21224;-92
2020/12/23 03:27:24;;;;;;;17.77;11.10;;;;;;;-1.00;69.99;100844.05;1690025;82;21185;-91
2020/12/23 03:29:54;;;;;;;21.07;12.60;;;;;;;-1.00;69.95;100844.50;1690879;82;21307;-91
2020/12/23 03:32:45;;;;;;;19.03;12.13;;;;;;;-0.99;69.89;100844.41;1698727;81;21270;-91
2020/12/23 03:35:38;;;;;;;20.77;12.30;;;;;;;-1.00;69.96;100841.88;1662325;83;21056;-90
2020/12/23 03:38:59;;;;;;;24.27;12.60;;;;;;;-0.94;69.87;100828.86;1743130;80;23342;-94
2020/12/23 03:41:44;;;;;;;17.90;10.53;;;;;;;-0.93;69.78;100829.25;1754868;79;21155;-92
2020/12/23 03:44:15;;;;;;;21.00;13.00;;;;;;;-0.94;69.71;100835.41;1736199;81;21149;-92
2020/12/23 03:46:56;;;;;;;19.87;12.93;;;;;;;-0.91;69.67;100840.45;1745846;78;21155;-93
2020/12/23 03:49:34;;;;;;;19.20;11.80;;;;;;;-0.90;69.82;100840.83;1752002;78;21176;-95
2020/12/23 03:52:34;;;;;;;23.07;13.17;;;;;;;-0.90;69.75;100829.88;1746429;80;21283;-94
2020/12/23 03:55:20;;;;;;;17.87;11.60;;;;;;;-0.93;69.95;100834.00;1719126;82;21183;-94
2020/12/23 03:57:59;;;;;;;19.43;11.80;;;;;;;-0.90;70.03;100834.28;1743580;81;21214;-94
2020/12/23 04:00:49;;;;;;;23.87;12.77;;;;;;;-0.91;70.03;100843.06;1759195;81;21294;-95
2020/12/23 04:03:56;;;;;;;22.13;13.63;;;;;;;-0.92;70.27;100836.14;1729538;82;21152;-95
2020/12/23 04:07:16;;;;;;;21.83;11.50;;;;;;;-0.95;70.43;100824.59;1737984;81;21295;-93
2020/12/23 04:10:25;;;;;;;22.20;13.93;;;;;;;-1.02;70.85;100815.84;1718718;82;21555;-94
2020/12/23 04:13:38;;;;;;;23.33;13.37;;;;;;;-1.01;71.03;100815.36;1728801;81;21287;-94
2020/12/23 04:16:43;;;;;;;23.10;12.93;;;;;;;-1.05;71.18;100820.44;1727752;81;21191;-93
2020/12/23 04:19:55;;;;;;;20.45;11.03;;;;;;;-1.08;71.27;100836.33;1736467;82;21159;-92
2020/12/23 04:22:39;;;;;;;23.30;14.00;;;;;;;-1.09;71.19;100822.42;1735551;81;21095;-91
2020/12/23 04:25:38;;;;;;;23.10;12.43;;;;;;;-1.04;71.19;100801.16;1749537;81;21140;-93
2020/12/23 04:28:22;;;;;;;23.73;13.07;;;;;;;-1.08;71.42;100802.31;1745654;79;21165;-82
2020/12/23 04:31:02;;;;;;;22.83;13.43;;;;;;;-1.10;71.49;100797.66;1719282;81;21243;-94
2020/12/23 04:34:20;;;;;;;;;;;;;;;;;;;;;
2020/12/23 04:36:51;;;;;;;23.13;13.47;;;;;;;-1.07;71.28;100793.06;1658774;84;21236;-92
2020/12/23 04:39:32;;;;;;;26.63;13.67;;;;;;;-1.20;71.74;100802.66;1653909;84;21203;-92
2020/12/23 04:42:12;;;;;;;27.67;14.60;;;;;;;-1.10;71.40;100799.80;1614688;86;21218;-93
2020/12/23 04:45:28;;;;;;;21.40;12.40;;;;;;;-1.12;71.52;100809.52;1674662;79;21286;-94
2020/12/23 04:48:38;;;;;;;26.30;14.23;;;;;;;-1.14;71.57;100800.94;1658124;84;21155;-96
2020/12/23 04:51:56;;;;;;;20.70;12.17;;;;;;;-1.13;71.60;100799.16;1677005;83;21197;-94
2020/12/23 05:06:07;;;;;;;23.90;14.97;;;;;;;-1.20;72.04;100808.73;1798093;76;24683;-95
2020/12/23 05:08:59;;;;;;;21.33;12.07;;;;;;;-1.29;72.29;100796.25;1739528;81;21132;-93
2020/12/23 05:12:27;;;;;;;25.50;13.93;;;;;;;-1.25;72.25;100791.66;1737082;81;21163;-94
2020/12/23 05:15:05;;;;;;;29.93;13.33;;;;;;;-1.18;72.07;100800.78;1759585;81;21716;-89
2020/12/23 05:17:47;;;;;;;23.00;13.50;;;;;;;-1.18;72.01;100810.77;1756916;80;21199;-90
2020/12/23 05:20:25;;;;;;;20.03;13.43;;;;;;;-1.16;72.03;100792.84;1737499;81;21158;-90
2020/12/23 05:23:02;;;;;;;23.13;13.93;;;;;;;-1.14;71.91;100806.66;1709862;81;21134;-92
2020/12/23 05:26:22;;;;;;;29.75;13.68;;;;;;;-1.12;71.77;100800.37;1734882;79;21214;-91
2020/12/23 05:32:55;;;;;;;26.07;16.03;;;;;;;-1.02;71.71;100771.36;1808852;77;27439;-92
2020/12/23 05:36:08;;;;;;;25.73;16.60;;;;;;;-1.03;71.60;100780.61;1772918;78;21191;-91
2020/12/23 05:38:38;;;;;;;24.17;14.27;;;;;;;-1.03;71.62;100777.52;1777170;79;21171;-92
2020/12/23 05:41:09;;;;;;;24.60;15.30;;;;;;;-1.01;71.73;100782.18;1771876;79;21179;-92
2020/12/23 05:43:44;;;;;;;24.90;15.70;;;;;;;-1.01;71.68;100776.95;1745717;81;21124;-96
2020/12/23 05:47:02;;;;;;;23.43;14.13;;;;;;;-0.99;71.66;100772.92;1764913;80;21167;-95
2020/12/23 05:50:11;;;;;;;28.37;15.33;;;;;;;-2.26;71.78;100591.33;1713576;81;21175;-92
2020/12/23 05:56:28;;;;;;;28.57;17.53;;;;;;;-1.04;72.03;100781.06;1688176;81;21193;-94
2020/12/23 05:59:15;;;;;;;27.00;15.53;;;;;;;-1.06;72.21;100781.64;1655679;83;21166;-85
2020/12/23 06:01:42;;;;;;;28.47;16.90;;;;;;;-1.07;72.22;100768.20;1699640;83;21201;-89
2020/12/23 06:04:14;;;;;;;27.30;15.77;;;;;;;-1.07;72.23;100768.69;1637102;86;21227;-91
2020/12/23 06:06:44;;;;;;;29.37;16.70;;;;;;;-1.02;72.26;100757.42;1600873;84;21140;-91
2020/12/23 06:09:14;;;;;;;32.77;16.60;;;;;;;-1.02;72.19;100753.48;1636586;87;21631;-91
2020/12/23 06:11:52;;;;;;;;;;;;;;;-1.02;72.22;100756.11;1630998;87;21199;-89
2020/12/23 06:14:26;;;;;;;27.37;16.87;;;;;;;-0.97;72.12;100757.95;1626263;83;20225;-91
2020/12/23 06:17:30;;;;;;;39.00;18.40;;;;;;;-1.00;72.47;100755.53;1765245;78;24971;-87
2020/12/23 06:20:02;;;;;;;29.00;13.93;;;;;;;-1.05;72.49;100751.10;1746676;80;21215;-89
2020/12/23 06:22:38;;;;;;;32.03;19.53;;;;;;;-1.04;72.54;100752.77;1727791;82;21327;-87
2020/12/23 06:25:06;;;;;;;29.83;18.80;;;;;;;-1.01;72.47;100758.63;1693162;82;21168;-89
2020/12/23 06:27:35;;;;;;;30.80;18.73;;;;;;;-1.00;72.54;100747.23;1739726;82;21150;-90
2020/12/23 06:30:06;;;;;;;35.03;19.40;;;;;;;-0.97;72.38;100755.34;1727908;82;21200;-93
2020/12/23 06:32:34;;;;;;;37.70;19.80;;;;;;;-1.04;72.58;100754.90;1721638;82;21342;-87
2020/12/23 06:35:06;;;;;;;32.93;18.53;;;;;;;-1.02;72.59;100762.20;1692919;83;21306;-88
2020/12/23 06:37:34;;;;;;;33.47;19.13;;;;;;;-0.95;72.49;100765.70;1683654;83;21209;-87
2020/12/23 06:40:14;;;;;;;32.87;19.73;;;;;;;-0.99;72.57;100742.35;1685646;83;21396;-85
2020/12/23 06:42:50;;;;;;;33.07;20.17;;;;;;;-0.97;72.53;100729.65;1667429;84;21689;-86
2020/12/23 06:45:20;;;;;;;35.10;18.67;;;;;;;-0.97;72.54;100723.94;1682242;83;21229;-88
2020/12/23 06:48:16;;;;;;;35.73;19.17;;;;;;;-1.00;72.58;100704.51;1686348;83;21269;-88
2020/12/23 06:50:48;;;;;;;37.00;19.20;;;;;;;-1.04;72.86;100718.75;1684495;82;21168;-89
2020/12/23 06:53:40;;;;;;;38.53;20.77;;;;;;;-1.08;72.95;100719.90;1688480;81;21186;-88
2020/12/23 06:56:10;;;;;;;32.77;18.33;;;;;;;-1.07;73.09;100721.11;1669178;83;21221;-88
2020/12/23 06:58:42;;;;;;;36.73;21.67;;;;;;;-1.22;73.10;100707.28;1665753;80;21300;-87
2020/12/23 07:01:17;;;;;;;33.40;19.90;;;;;;;-1.09;73.14;100723.00;1655355;84;21220;-86
2020/12/23 07:03:47;;;;;;;39.90;23.50;;;;;;;-1.05;73.12;100732.31;1644338;85;21162;-88
2020/12/23 07:06:31;;;;;;;38.40;20.30;;;;;;;-1.00;72.93;100743.31;1639979;85;21117;-82
2020/12/23 07:09:09;;;;;;;39.97;19.97;;;;;;;-1.07;73.20;100738.12;1654644;84;22157;-84
2020/12/23 07:38:11;;;;;;;33.63;18.73;;;;;;;-0.84;72.52;100719.53;1633446;85;22557;-93
2020/12/23 07:41:32;;;;;;;35.37;20.33;;;;;;;-0.80;72.43;100730.64;1643479;84;21213;-93
2020/12/23 07:44:37;;;;;;;32.80;17.23;;;;;;;-0.83;72.51;100731.69;1607880;86;21163;-93
2020/12/23 07:48:06;;;;;;;34.70;17.90;;;;;;;-0.84;72.54;100727.87;1626396;84;21320;-96
2020/12/23 07:50:39;;;;;;;31.13;19.13;;;;;;;-0.86;72.57;100724.52;1592447;87;21262;-96
2020/12/23 07:53:47;;;;;;;34.33;18.27;;;;;;;-0.84;72.66;100728.70;1643594;84;21369;-91
2020/12/23 07:56:41;;;;;;;35.93;17.97;;;;;;;-0.82;72.61;100725.50;1617568;85;21199;-92
2020/12/23 07:59:32;;;;;;;37.03;20.37;;;;;;;-0.83;72.77;100711.20;1648107;83;21306;-91
2020/12/23 08:02:25;;;;;;;38.00;20.63;;;;;;;-0.79;72.92;100714.83;1636600;83;21261;-90
2020/12/23 08:05:07;;;;;;;40.77;19.10;;;;;;;-0.74;72.90;100714.50;1644553;85;21187;-89
2020/12/23 08:07:44;;;;;;;34.90;21.83;;;;;;;-0.77;73.09;100688.55;1634023;86;21286;-91
2020/12/23 08:10:30;;;;;;;32.03;20.37;;;;;;;-0.77;73.03;100715.18;1572805;88;21359;-88
2020/12/23 08:13:04;;;;;;;30.70;19.43;;;;;;;-0.80;73.32;100701.84;1614331;85;21218;-92
2020/12/23 08:15:45;;;;;;;29.43;17.30;;;;;;;-0.78;73.42;100709.11;1589737;87;21159;-93
2020/12/23 08:18:35;;;;;;;36.10;19.87;;;;;;;-0.72;73.39;100695.59;1615033;86;21244;-91
2020/12/23 08:21:17;;;;;;;31.40;17.80;;;;;;;-0.77;73.53;100692.93;1616150;87;21260;-90
2020/12/23 08:23:47;;;;;;;32.57;19.83;;;;;;;-0.74;73.35;100696.66;1607048;88;21393;-89
2020/12/23 08:26:26;;;;;;;33.47;18.13;;;;;;;-0.73;73.44;100697.86;1638199;85;21187;-90
2020/12/23 08:29:00;;;;;;;35.03;18.37;;;;;;;-0.74;73.68;100705.81;1615716;86;21216;-91
2020/12/23 08:31:41;;;;;;;35.17;20.33;;;;;;;-0.70;73.63;100703.34;1615704;86;21257;-89
2020/12/23 08:34:35;;;;;;;31.00;17.00;;;;;;;-0.74;73.79;100692.25;1618469;84;21240;-88
2020/12/23 08:37:23;;;;;;;26.97;15.60;;;;;;;-0.76;74.02;100692.83;1560862;89;21236;-91
2020/12/23 08:40:19;;;;;;;32.03;17.13;;;;;;;-0.72;74.27;100688.22;1568929;88;21243;-91
2020/12/23 08:43:09;;;;;;;;;;;;;;;-0.75;74.61;100691.90;1579278;88;21252;-88
2020/12/23 08:45:45;;;;;;;27.17;17.07;;;;;;;-0.80;74.80;100691.37;1598919;88;20257;-91
2020/12/23 08:48:32;;;;;;;27.77;16.50;;;;;;;-0.77;75.25;100686.39;1628003;85;21173;-90
2020/12/23 08:51:23;;;;;;;27.87;16.53;;;;;;;-0.81;75.51;100677.91;1610965;87;21259;-85
2020/12/23 08:53:52;;;;;;;32.13;17.93;;;;;;;-0.82;75.77;100670.53;1584798;87;21685;-87
2020/12/23 08:56:28;;;;;;;28.37;17.47;;;;;;;-0.83;76.21;100674.11;1587040;88;21279;-88
2020/12/23 08:59:06;;;;;;;32.17;17.67;;;;;;;-0.83;76.49;100675.87;1604515;87;21226;-92
2020/12/23 09:01:50;;;;;;;53.00;17.90;;;;;;;-0.81;76.59;100666.98;1565628;86;21200;-92
2020/12/23 09:04:37;;;;;;;29.33;18.77;;;;;;;-2.17;77.10;100475.82;1641705;86;21162;-89
2020/12/23 09:08:17;;;;;;;32.83;18.03;;;;;;;-0.85;77.47;100660.75;1616807;86;21291;-91
2020/12/23 09:10:58;;;;;;;33.03;20.03;;;;;;;-0.93;78.07;100665.20;1645081;85;21188;-88
2020/12/23 09:13:34;;;;;;;33.38;19.87;;;;;;;-0.94;78.64;100653.53;1631897;84;21169;-89
2020/12/23 09:16:55;;;;;;;35.47;17.70;;;;;;;-0.95;78.90;100647.95;1644365;85;21329;-89
2020/12/23 09:20:06;;;;;;;31.80;17.53;;;;;;;-0.99;79.42;100650.77;1656700;84;21327;-87
2020/12/23 09:23:00;;;;;;;29.27;16.80;;;;;;;-1.02;79.63;100644.45;1659096;84;21201;-84
2020/12/23 09:25:33;;;;;;;30.70;17.77;;;;;;;-0.90;79.49;100639.31;1659161;84;21263;-89
2020/12/23 09:28:14;;;;;;;30.10;17.07;;;;;;;-0.98;79.76;100641.13;1656047;81;21185;-94
2020/12/23 09:41:27;;;;;;;30.17;19.17;;;;;;;-1.03;80.74;100613.98;1660903;84;21160;-95
2020/12/23 09:44:37;;;;;;;30.35;19.05;;;;;;;-0.87;80.89;100606.37;1615366;85;21168;-96
2020/12/23 09:47:51;;;;;;;25.52;15.88;;;;;;;-0.93;80.87;100601.09;1631874;84;21314;-93
2020/12/23 09:50:40;;;;;;;31.13;16.33;;;;;;;-0.90;80.27;100607.91;1616180;85;21581;-85
2020/12/23 09:53:27;;;;;;;30.12;17.45;;;;;;;-0.89;80.32;100608.26;1645665;84;21284;-95
2020/12/23 09:56:34;;;;;;;31.13;17.23;;;;;;;-0.80;80.08;100582.75;1658286;84;21148;-94
2020/12/23 10:00:06;;;;;;;28.33;16.23;;;;;;;-0.80;80.11;100584.88;1662682;84;21165;-86
2020/12/23 10:03:13;;;;;;;30.13;19.00;;;;;;;-0.79;79.72;100597.52;1658764;85;21175;-92
2020/12/23 10:05:43;;;;;;;29.57;17.50;;;;;;;-0.95;79.43;100548.52;1663442;85;21229;-93
2020/12/23 10:08:43;;;;;;;30.00;17.10;;;;;;;-0.83;79.66;100579.89;1637444;84;21215;-93
2020/12/23 10:11:18;;;;;;;;;;;;;;;-0.73;79.93;100581.38;1667818;84;21283;-92
2020/12/23 10:14:27;;;;;;;31.73;15.93;;;;;;;-0.76;79.73;100572.90;1671901;84;20232;-92
2020/12/23 10:16:55;;;;;;;23.97;15.17;;;;;;;-0.81;80.11;100570.59;1654652;85;21353;-91
2020/12/23 10:19:22;;;;;;;25.73;14.47;;;;;;;-0.76;79.81;100569.80;1655810;85;21249;-85
2020/12/23 10:21:50;;;;;;;25.13;12.90;;;;;;;-0.77;79.96;100556.37;1653205;85;21184;-85
2020/12/23 10:24:42;;;;;;;23.00;14.03;;;;;;;-0.70;79.71;100553.65;1680375;84;21145;-85
2020/12/23 10:27:09;;;;;;;26.07;14.93;;;;;;;-0.69;79.61;100555.33;1673506;84;21232;-87
2020/12/23 10:29:37;;;;;;;21.83;11.73;;;;;;;-0.72;79.92;100552.92;1616825;86;21241;-86
2020/12/23 10:32:04;;;;;;;24.47;15.13;;;;;;;-0.66;80.01;100556.88;1684070;83;21749;-87
2020/12/23 10:34:36;;;;;;;23.67;13.80;;;;;;;-0.66;80.04;100543.80;1667435;84;21858;-85
2020/12/23 10:37:04;;;;;;;23.00;13.70;;;;;;;-0.72;80.06;100552.09;1724240;81;21144;-84
2020/12/23 10:39:31;;;;;;;22.97;14.63;;;;;;;-0.66;80.04;100535.94;1746967;80;21157;-85
2020/12/23 10:41:59;;;;;;;19.93;13.33;;;;;;;-0.64;80.10;100542.75;1740068;79;21206;-87
2020/12/23 10:44:28;;;;;;;20.90;13.93;;;;;;;-0.68;80.08;100536.08;1751092;80;21729;-86
2020/12/23 10:46:56;;;;;;;26.17;14.73;;;;;;;-0.71;80.39;100538.91;1719510;80;153950;-90
2020/12/23 10:49:24;;;;;;;23.90;16.40;;;;;;;-0.60;80.18;100528.97;1633425;86;21879;-90
2020/12/23 10:52:00;;;;;;;21.57;13.53;;;;;;;-0.60;80.29;100526.36;1650781;85;21397;-90
2020/12/23 10:54:28;;;;;;;21.93;15.47;;;;;;;-0.71;80.56;100533.67;1652588;84;21195;-90
2020/12/23 10:56:58;;;;;;;21.27;15.03;;;;;;;-0.61;80.59;100518.13;1638958;85;21861;-87
2020/12/23 10:59:25;;;;;;;25.40;16.70;;;;;;;-0.57;80.55;100507.78;1605677;87;21975;-88
2020/12/23 11:01:55;;;;;;;27.47;16.40;;;;;;;-0.60;80.78;100515.40;1590559;87;21263;-89
2020/12/23 11:04:23;;;;;;;28.47;15.30;;;;;;;-0.64;80.71;100519.20;1642199;85;21203;-89
2020/12/23 11:06:52;;;;;;;24.83;14.17;;;;;;;-0.61;80.41;100499.31;1687459;82;21115;-88
2020/12/23 11:09:23;;;;;;;28.13;15.73;;;;;;;-0.47;80.74;100507.94;1676699;84;21552;-89
2020/12/23 11:21:53;;;;;;;22.07;13.83;;;;;;;-0.47;80.31;100500.94;1606897;84;21221;-94
2020/12/23 11:28:36;;;;;;;25.17;15.83;;;;;;;-0.44;81.23;100509.03;1631146;85;21823;-92
2020/12/23 11:32:05;;;;;;;;;;;;;;;;;;;;;
2020/12/23 11:35:40;;;;;;;;;;;;;;;;;;;;;
2020/12/23 11:48:45;;;;;;;27.83;17.17;;;;;;;-0.31;79.14;100474.91;1691700;79;22422;-92
2020/12/23 11:52:04;;;;;;;24.52;15.10;;;;;;;-0.34;79.02;100482.53;1645092;82;21187;-93
2020/12/23 11:55:18;;;;;;;24.60;16.40;;;;;;;-0.32;79.10;100474.54;1642436;82;21381;-93
2020/12/23 11:58:28;;;;;;;28.33;15.03;;;;;;;-0.30;78.77;100479.19;1660232;83;21228;-94
2020/12/23 12:01:41;;;;;;;23.10;15.07;;;;;;;-0.33;79.00;100465.86;1715251;79;21331;-94
2020/12/23 12:07:38;;;;;;;22.60;14.83;;;;;;;-0.33;79.12;100475.50;1717855;81;21353;-94
2020/12/23 12:10:43;;;;;;;25.27;15.57;;;;;;;-0.18;79.20;100476.14;1607471;82;21402;-94
2020/12/23 12:13:52;;;;;;;25.30;14.20;;;;;;;-0.14;78.91;100482.81;1687241;81;21191;-92
2020/12/23 12:16:49;;;;;;;24.50;15.83;;;;;;;-0.31;79.01;100463.95;1723440;81;21289;-94
2020/12/23 12:20:04;;;;;;;29.32;17.82;;;;;;;-0.18;78.77;100480.07;1736547;80;21357;-93
2020/12/23 12:23:04;;;;;;;25.83;16.67;;;;;;;-0.10;78.61;100481.14;1722945;81;21183;-91
2020/12/23 12:26:09;;;;;;;20.90;14.23;;;;;;;-0.26;78.72;100476.23;1723979;81;21628;-92
2020/12/23 12:28:53;;;;;;;26.73;16.07;;;;;;;-0.23;78.63;100476.47;1727955;81;21248;-93
2020/12/23 12:31:59;;;;;;;29.03;18.10;;;;;;;-0.09;78.55;100474.14;1730840;81;21184;-91
2020/12/23 12:34:28;;;;;;;21.37;14.70;;;;;;;-0.18;78.45;100480.07;1743252;80;21202;-91
2020/12/23 12:40:28;;;;;;;24.25;15.48;;;;;;;-0.04;78.67;100475.47;1749426;79;21075;-93
2020/12/23 12:43:27;;;;;;;26.00;15.50;;;;;;;-0.10;78.10;100478.52;1740415;81;21150;-94
2020/12/23 12:46:14;;;;;;;24.60;15.30;;;;;;;-0.19;78.74;100472.66;1740723;81;21235;-94
2020/12/23 12:49:14;;;;;;;24.47;15.37;;;;;;;-0.08;78.54;100482.34;1731410;81;21103;-95
2020/12/23 12:51:45;;;;;;;22.60;14.43;;;;;;;-0.16;78.71;100471.14;1738835;81;21114;-92
2020/12/23 12:54:33;;;;;;;21.33;14.43;;;;;;;-0.22;79.09;100474.23;1739507;81;21162;-92
2020/12/23 12:57:46;;;;;;;21.03;14.53;;;;;;;-0.13;78.90;100475.30;1730220;80;21122;-89
2020/12/23 13:11:25;;;;;;;21.40;14.33;;;;;;;-0.21;79.11;100463.64;1797619;77;23319;-90
2020/12/23 13:14:00;;;;;;;23.13;15.23;;;;;;;-0.23;79.22;100464.69;1764541;78;21210;-89
2020/12/23 13:16:35;;;;;;;19.50;13.17;;;;;;;-0.14;79.09;100473.64;1742436;79;21351;-87
2020/12/23 13:19:05;;;;;;;23.67;16.23;;;;;;;-0.24;79.14;100482.20;1762951;79;21210;-86
2020/12/23 13:21:33;;;;;;;18.33;13.07;;;;;;;-0.22;79.43;100469.81;1772005;78;21179;-86
2020/12/23 13:24:03;;;;;;;22.67;14.40;;;;;;;-0.09;79.16;100477.59;1761793;78;21159;-84
2020/12/23 13:26:31;;;;;;;20.40;15.60;;;;;;;-0.10;79.16;100476.39;1708777;81;21176;-88
2020/12/23 13:29:16;;;;;;;21.93;14.40;;;;;;;-0.13;79.54;100483.16;1825672;76;23102;-85
2020/12/23 13:31:43;;;;;;;19.30;14.53;;;;;;;-0.15;79.15;100479.38;1815273;78;22208;-86
2020/12/23 13:34:11;;;;;;;19.30;14.97;;;;;;;-0.06;79.00;100481.75;1797612;78;21351;-84
2020/12/23 13:36:38;;;;;;;19.60;14.27;;;;;;;-0.06;79.24;100486.99;1746834;78;21539;-85
2020/12/23 13:39:07;;;;;;;18.87;14.83;;;;;;;-0.13;79.22;100483.16;1702070;82;21341;-86
2020/12/23 13:41:38;;;;;;;21.17;13.80;;;;;;;-0.04;79.15;100494.26;1713174;82;21136;-85
2020/12/23 13:44:07;;;;;;;22.30;15.93;;;;;;;0.04;78.85;100488.44;1700364;82;21248;-83
2020/12/23 13:46:35;;;;;;;20.13;15.37;;;;;;;0.01;79.06;100479.52;1715214;82;21336;-88
2020/12/23 13:49:07;;;;;;;20.90;14.33;;;;;;;-0.05;79.34;100479.50;1683929;84;21183;-86
2020/12/23 13:51:36;;;;;;;18.33;14.13;;;;;;;0.01;79.24;100482.96;1712042;82;21586;-85
2020/12/23 13:54:04;;;;;;;23.40;15.47;;;;;;;0.05;78.89;100472.59;1688917;82;21657;-87
2020/12/23 13:59:39;;;;;;;24.97;16.23;;;;;;;-0.05;79.33;100463.78;1846868;77;24152;-84
2020/12/23 14:02:17;;;;;;;20.33;14.57;;;;;;;-0.01;79.27;100471.77;1808233;78;21266;-88
2020/12/23 14:04:46;;;;;;;21.13;15.50;;;;;;;0.04;78.78;100480.13;1778129;78;21175;-86